Hoboksar, China
Current Conditions -  °F | °C
As of 1:30 PM on Saturday 25 Oct 2014 (Local Time) from ZWWW Reporting Station
Clear Clear  
Wind Chill: 59°   Ceiling: Unl
Heat Index: 59°   Visibility: 6mi
Dew Point: 46°   Wind: 4mph
Humidity: 63%   Direction: 330°NNW
Pressure: 30.03"   Gusts: NA
Location:  46.78°N, 85.72°E
Report Text: ZWWW 250530Z 33002MPS 290V010 CAVOK 15/08 Q1017 NOSIG
Loading
Personal Weather Stations






























Interactive Weather Map
Tropical Storm Tracking
New forecast layout! Learn more

10-Day Weather Forecast

Advertisements
Track Severe Weather on mobile